Time;durP1;ratioP1;P1;durP2;ratioP2;P2;SDS_P1;SDS_P2;PMS_P1;PMS_P2;Temp;Humidity;BMP_temperature;BMP_pressure;BME280_temperature;BME280_humidity;BME280_pressure;Samples;Min_cycle;Max_cycle;Signal;HPM_P1;HPM_P2
2022/03/12 00:00:31;;;;;;;;;;;;;;;;;;2123104;28;19946;-48
2022/03/12 00:01:32;;;;;;;;;;;;;;;;;;2122630;28;19990;-49
2022/03/12 00:02:34;;;;;;;;;;;;;;;;;;2123102;28;19931;-48
2022/03/12 00:03:35;;;;;;;;;;;;;;;;;;2123441;28;20010;-47
2022/03/12 00:04:36;;;;;;;;;;;;;;;;;;2123648;28;19923;-48
2022/03/12 00:05:38;;;;;;;;;;;;;;;;;;2123513;27;19923;-48
2022/03/12 00:06:39;;;;;;;;;;;;;;;;;;2123437;28;19931;-49
2022/03/12 00:07:41;;;;;;;;;;;;;;;;;;2123499;28;19962;-49
2022/03/12 00:08:44;;;;;;;;;;;;;;;;;;2123554;27;19931;-47
2022/03/12 00:09:44;;;;;;;;;;;;;;;;;;2123501;27;20468;-47
2022/03/12 00:10:48;;;;;;;;;;;;;;;;;;2123500;28;19953;-48
2022/03/12 00:11:51;;;;;;;;;;;;;;;;;;2123879;27;19923;-48
2022/03/12 00:12:53;;;;;;;;;;;;;;;;;;2123399;28;19931;-49
2022/03/12 00:13:54;;;;;;;;;;;;;;;;;;2123385;27;19924;-47
2022/03/12 00:14:55;;;;;;;;;;;;;;;;;;2124028;28;20329;-48
2022/03/12 00:15:58;;;;;;;;;;;;;;;;;;2123491;27;19924;-50
2022/03/12 00:17:00;;;;;;;;;;;;;;;;;;2123286;27;19931;-48
2022/03/12 00:18:01;;;;;;;;;;;;;;;;;;2123577;28;19951;-48
2022/03/12 00:19:04;;;;;;;;;;;;;;;;;;2123355;28;19977;-48
2022/03/12 00:20:12;;;;;;;;;;;;;;;;;;2129059;27;19927;-49
2022/03/12 00:21:13;;;;;;;;;;;;;;;;;;2131840;27;20395;-48
2022/03/12 00:22:15;;;;;;;;;;;;;;;;;;2126004;27;19934;-48
2022/03/12 00:23:18;;;;;;;;;;;;;;;;;;2123699;27;20296;-43
2022/03/12 00:24:19;;;;;;;;;;;;;;;;;;2122960;27;20376;-43
2022/03/12 00:25:21;;;;;;;;;;;;;;;;;;2127791;27;20560;-43
2022/03/12 00:26:23;;;;;;;;;;;;;;;;;;2127186;27;19923;-43
2022/03/12 00:27:24;;;;;;;;;;;;;;;;;;2126489;27;19934;-43
2022/03/12 00:28:25;;;;;;;;;;;;;;;;;;2123360;27;19923;-43
2022/03/12 00:29:27;;;;;;;;;;;;;;;;;;2123550;27;19931;-43
2022/03/12 00:30:30;;;;;;;;;;;;;;;;;;2123155;28;19923;-43
2022/03/12 00:31:33;;;;;;;;;;;;;;;;;;2126136;27;19968;-43
2022/03/12 00:32:36;;;;;;;;;;;;;;;;;;2132001;27;19976;-43
2022/03/12 00:33:38;;;;;;;;;;;;;;;;;;2130882;27;19962;-47
2022/03/12 00:34:39;;;;;;;;;;;;;;;;;;2129755;27;19923;-48
2022/03/12 00:35:40;;;;;;;;;;;;;;;;;;2127956;27;19998;-48
2022/03/12 00:36:41;;;;;;;;;;;;;;;;;;2132054;27;20007;-46
2022/03/12 00:37:42;;;;;;;;;;;;;;;;;;2125062;27;19924;-48
2022/03/12 00:38:43;;;;;;;;;;;;;;;;;;2122700;27;19923;-49
2022/03/12 00:39:47;;;;;;;;;;;;;;;;;;2122986;28;20025;-47
2022/03/12 00:40:48;;;;;;;;;;;;;;;;;;2123192;28;20368;-47
2022/03/12 00:41:49;;;;;;;;;;;;;;;;;;2123177;28;19975;-47
2022/03/12 00:42:50;;;;;;;;;;;;;;;;;;2123370;28;19923;-49
2022/03/12 00:43:51;;;;;;;;;;;;;;;;;;2123216;28;19923;-48
2022/03/12 00:44:52;;;;;;;;;;;;;;;;;;2123709;27;19923;-47
2022/03/12 00:45:53;;;;;;;;;;;;;;;;;;2130927;27;19930;-47
2022/03/12 00:46:54;;;;;;;;;;;;;;;;;;2130958;27;20333;-48
2022/03/12 00:47:55;;;;;;;;;;;;;;;;;;2130366;27;19923;-43
2022/03/12 00:48:57;;;;;;;;;;;;;;;;;;2123088;28;20040;-43
2022/03/12 00:49:58;;;;;;;;;;;;;;;;;;2123358;28;19930;-43
2022/03/12 00:50:59;;;;;;;;;;;;;;;;;;2122968;28;20187;-43
2022/03/12 00:52:00;;;;;;;;;;;;;;;;;;2123196;27;19924;-43
2022/03/12 00:53:01;;;;;;;;;;;;;;;;;;2123132;28;19930;-43
2022/03/12 00:54:05;;;;;;;;;;;;;;;;;;2123361;28;19923;-43
2022/03/12 00:55:06;;;;;;;;;;;;;;;;;;2127958;27;19923;-50
2022/03/12 00:56:07;;;;;;;;;;;;;;;;;;2131719;27;19923;-47
2022/03/12 00:57:11;;;;;;;;;;;;;;;;;;2131933;27;19927;-46
2022/03/12 00:58:12;;;;;;;;;;;;;;;;;;2131668;27;20364;-48
2022/03/12 00:59:13;;;;;;;;;;;;;;;;;;2126959;27;19924;-43
2022/03/12 01:00:14;;;;;;;;;;;;;;;;;;2123270;27;19943;-44
2022/03/12 01:01:17;;;;;;;;;;;;;;;;;;2122984;27;19932;-43
2022/03/12 01:02:18;;;;;;;;;;;;;;;;;;2123408;27;19927;-43
2022/03/12 01:03:19;;;;;;;;;;;;;;;;;;2123255;27;19931;-43
2022/03/12 01:04:21;;;;;;;;;;;;;;;;;;2123058;27;19923;-43
2022/03/12 01:05:22;;;;;;;;;;;;;;;;;;2124645;27;20049;-47
2022/03/12 01:06:23;;;;;;;;;;;;;;;;;;2123139;27;20030;-48
2022/03/12 01:07:24;;;;;;;;;;;;;;;;;;2123384;27;20000;-48
2022/03/12 01:08:25;;;;;;;;;;;;;;;;;;2123224;27;20326;-48
2022/03/12 01:09:26;;;;;;;;;;;;;;;;;;2123180;27;19924;-48
2022/03/12 01:10:27;;;;;;;;;;;;;;;;;;2123106;27;19980;-47
2022/03/12 01:11:28;;;;;;;;;;;;;;;;;;2123040;28;19923;-47
2022/03/12 01:12:29;;;;;;;;;;;;;;;;;;2123007;27;19972;-48
2022/03/12 01:13:30;;;;;;;;;;;;;;;;;;2123065;28;19934;-49
2022/03/12 01:14:32;;;;;;;;;;;;;;;;;;2123215;27;20432;-49
2022/03/12 01:15:34;;;;;;;;;;;;;;;;;;2131392;27;20372;-48
2022/03/12 01:16:35;;;;;;;;;;;;;;;;;;2131651;27;19931;-48
2022/03/12 01:17:37;;;;;;;;;;;;;;;;;;2131813;27;19924;-49
2022/03/12 01:18:38;;;;;;;;;;;;;;;;;;2131675;27;19930;-49
2022/03/12 01:19:39;;;;;;;;;;;;;;;;;;2131601;27;19929;-47
2022/03/12 01:20:40;;;;;;;;;;;;;;;;;;2131874;27;19923;-49
2022/03/12 01:21:42;;;;;;;;;;;;;;;;;;2131692;27;19923;-50
2022/03/12 01:22:43;;;;;;;;;;;;;;;;;;2131546;27;19931;-47
2022/03/12 01:23:44;;;;;;;;;;;;;;;;;;2131690;27;20283;-49
2022/03/12 01:24:45;;;;;;;;;;;;;;;;;;2131640;27;19927;-49
2022/03/12 01:25:46;;;;;;;;;;;;;;;;;;2130237;27;19930;-51
2022/03/12 01:26:48;;;;;;;;;;;;;;;;;;2131685;27;19963;-47
2022/03/12 01:27:49;;;;;;;;;;;;;;;;;;2131749;27;19958;-47
2022/03/12 01:28:50;;;;;;;;;;;;;;;;;;2131628;27;19967;-49
2022/03/12 01:29:51;;;;;;;;;;;;;;;;;;2131563;27;19923;-49
2022/03/12 01:30:54;;;;;;;;;;;;;;;;;;2131631;27;19923;-48
2022/03/12 01:31:55;;;;;;;;;;;;;;;;;;2125276;27;19928;-48
2022/03/12 01:32:56;;;;;;;;;;;;;;;;;;2123093;28;19923;-48
2022/03/12 01:33:57;;;;;;;;;;;;;;;;;;2123192;28;19924;-48
2022/03/12 01:34:58;;;;;;;;;;;;;;;;;;2123211;27;20277;-49
2022/03/12 01:36:00;;;;;;;;;;;;;;;;;;2125056;27;19927;-43
2022/03/12 01:37:01;;;;;;;;;;;;;;;;;;2125396;27;20043;-43
2022/03/12 01:38:02;;;;;;;;;;;;;;;;;;2128160;27;20377;-44
2022/03/12 01:39:03;;;;;;;;;;;;;;;;;;2125597;27;19928;-44
2022/03/12 01:40:04;;;;;;;;;;;;;;;;;;2127881;27;19923;-43
2022/03/12 01:41:06;;;;;;;;;;;;;;;;;;2124388;27;19923;-49
2022/03/12 01:42:08;;;;;;;;;;;;;;;;;;2123228;27;19931;-43
2022/03/12 01:43:08;;;;;;;;;;;;;;;;;;2122928;27;19930;-43
2022/03/12 01:44:10;;;;;;;;;;;;;;;;;;2122931;28;19931;-43
2022/03/12 01:45:10;;;;;;;;;;;;;;;;;;2126069;27;20113;-43
2022/03/12 01:46:12;;;;;;;;;;;;;;;;;;2131633;27;19923;-44
2022/03/12 01:47:15;;;;;;;;;;;;;;;;;;2126781;27;19978;-43
2022/03/12 01:48:17;;;;;;;;;;;;;;;;;;2127606;27;20019;-43
2022/03/12 01:49:18;;;;;;;;;;;;;;;;;;2131639;27;20563;-47
2022/03/12 01:50:19;;;;;;;;;;;;;;;;;;2132027;27;19927;-48
2022/03/12 01:51:20;;;;;;;;;;;;;;;;;;2127563;27;20292;-48
2022/03/12 01:52:21;;;;;;;;;;;;;;;;;;2124262;27;19923;-48
2022/03/12 01:53:22;;;;;;;;;;;;;;;;;;2124488;27;19930;-47
2022/03/12 01:54:24;;;;;;;;;;;;;;;;;;2124440;27;19967;-48
2022/03/12 01:55:30;;;;;;;;;;;;;;;;;;2124565;27;19927;-49
2022/03/12 01:56:34;;;;;;;;;;;;;;;;;;2128618;27;19927;-50
2022/03/12 01:57:35;;;;;;;;;;;;;;;;;;2126984;27;19927;-48
2022/03/12 01:58:36;;;;;;;;;;;;;;;;;;2130355;27;20018;-48
2022/03/12 01:59:37;;;;;;;;;;;;;;;;;;2132318;27;19923;-48
2022/03/12 02:00:41;;;;;;;;;;;;;;;;;;2132983;27;19923;-49
2022/03/12 02:01:42;;;;;;;;;;;;;;;;;;2126877;27;20264;-48
2022/03/12 02:02:44;;;;;;;;;;;;;;;;;;2128088;27;19923;-47
2022/03/12 02:03:45;;;;;;;;;;;;;;;;;;2124258;27;19935;-47
2022/03/12 02:04:49;;;;;;;;;;;;;;;;;;2124242;27;20261;-49
2022/03/12 02:05:50;;;;;;;;;;;;;;;;;;2129891;27;19923;-49
2022/03/12 02:06:52;;;;;;;;;;;;;;;;;;2126535;27;19967;-47
2022/03/12 02:07:53;;;;;;;;;;;;;;;;;;2125256;27;20350;-49
2022/03/12 02:08:58;;;;;;;;;;;;;;;;;;2126891;27;19972;-48
2022/03/12 02:10:00;;;;;;;;;;;;;;;;;;2130385;27;19979;-47
2022/03/12 02:11:02;;;;;;;;;;;;;;;;;;2128080;27;19923;-48
2022/03/12 02:12:03;;;;;;;;;;;;;;;;;;2127376;27;20372;-48
2022/03/12 02:13:06;;;;;;;;;;;;;;;;;;2126636;27;19930;-47
2022/03/12 02:14:07;;;;;;;;;;;;;;;;;;2126055;27;19924;-47
2022/03/12 02:15:08;;;;;;;;;;;;;;;;;;2132485;27;20022;-47
2022/03/12 02:16:09;;;;;;;;;;;;;;;;;;2128058;27;19947;-50
2022/03/12 02:17:10;;;;;;;;;;;;;;;;;;2131020;27;20387;-44
2022/03/12 02:18:11;;;;;;;;;;;;;;;;;;2132847;27;19927;-43
2022/03/12 02:19:12;;;;;;;;;;;;;;;;;;2126332;27;20435;-43
2022/03/12 02:20:13;;;;;;;;;;;;;;;;;;2125019;27;19924;-43
2022/03/12 02:21:15;;;;;;;;;;;;;;;;;;2132480;27;20414;-44
2022/03/12 02:22:17;;;;;;;;;;;;;;;;;;2125949;27;19985;-43
2022/03/12 02:23:18;;;;;;;;;;;;;;;;;;2127331;27;19927;-43
2022/03/12 02:24:20;;;;;;;;;;;;;;;;;;2124347;27;19923;-43
2022/03/12 02:25:21;;;;;;;;;;;;;;;;;;2126079;27;19924;-44
2022/03/12 02:26:22;;;;;;;;;;;;;;;;;;2124210;28;19924;-47
2022/03/12 02:27:25;;;;;;;;;;;;;;;;;;2124311;28;19923;-43
2022/03/12 02:28:27;;;;;;;;;;;;;;;;;;2132534;27;19930;-43
2022/03/12 02:29:28;;;;;;;;;;;;;;;;;;2131135;27;20303;-43
2022/03/12 02:30:33;;;;;;;;;;;;;;;;;;2132776;27;19923;-43
2022/03/12 02:31:34;;;;;;;;;;;;;;;;;;2129939;27;20331;-43
2022/03/12 02:32:35;;;;;;;;;;;;;;;;;;2124642;27;19927;-42
2022/03/12 02:33:36;;;;;;;;;;;;;;;;;;2129694;27;19923;-43
2022/03/12 02:34:39;;;;;;;;;;;;;;;;;;2130256;27;19975;-43
2022/03/12 02:35:44;;;;;;;;;;;;;;;;;;2124694;27;19964;-43
2022/03/12 02:36:45;;;;;;;;;;;;;;;;;;2124047;27;20354;-43
2022/03/12 02:37:48;;;;;;;;;;;;;;;;;;2130220;27;19923;-43
2022/03/12 02:38:50;;;;;;;;;;;;;;;;;;2129660;27;19923;-43
2022/03/12 02:39:50;;;;;;;;;;;;;;;;;;2125333;27;19930;-43
2022/03/12 02:40:52;;;;;;;;;;;;;;;;;;2132823;27;19923;-43
2022/03/12 02:41:53;;;;;;;;;;;;;;;;;;2127002;27;19930;-43
2022/03/12 02:42:54;;;;;;;;;;;;;;;;;;2125237;27;19924;-47
2022/03/12 02:43:55;;;;;;;;;;;;;;;;;;2124422;28;19932;-48
2022/03/12 02:44:59;;;;;;;;;;;;;;;;;;2125028;27;19924;-51
2022/03/12 02:46:02;;;;;;;;;;;;;;;;;;2124353;27;19930;-48
2022/03/12 02:47:03;;;;;;;;;;;;;;;;;;2125054;27;19924;-49
2022/03/12 02:48:10;;;;;;;;;;;;;;;;;;2125941;27;19931;-50
2022/03/12 02:49:11;;;;;;;;;;;;;;;;;;2129546;27;19923;-48
2022/03/12 02:50:14;;;;;;;;;;;;;;;;;;2132709;27;19923;-47
2022/03/12 02:51:15;;;;;;;;;;;;;;;;;;2128016;27;19927;-46
2022/03/12 02:52:17;;;;;;;;;;;;;;;;;;2123961;28;20377;-47
2022/03/12 02:53:18;;;;;;;;;;;;;;;;;;2123943;28;19976;-47
2022/03/12 02:54:19;;;;;;;;;;;;;;;;;;2123781;28;19927;-48
2022/03/12 02:55:21;;;;;;;;;;;;;;;;;;2123966;28;20376;-48
2022/03/12 02:56:22;;;;;;;;;;;;;;;;;;2124048;28;19953;-48
2022/03/12 02:57:24;;;;;;;;;;;;;;;;;;2123823;28;19931;-48
2022/03/12 02:58:27;;;;;;;;;;;;;;;;;;2124030;28;19957;-48
2022/03/12 02:59:27;;;;;;;;;;;;;;;;;;2124062;27;19927;-48
2022/03/12 03:00:29;;;;;;;;;;;;;;;;;;2123915;28;19924;-47
2022/03/12 03:01:32;;;;;;;;;;;;;;;;;;2123626;27;20024;-48
2022/03/12 03:02:38;;;;;;;;;;;;;;;;;;2123309;27;19977;-48
2022/03/12 03:03:41;;;;;;;;;;;;;;;;;;2123969;27;19923;-48
2022/03/12 03:04:42;;;;;;;;;;;;;;;;;;2123848;28;20548;-48
2022/03/12 03:05:46;;;;;;;;;;;;;;;;;;2123745;27;19923;-47
2022/03/12 03:06:47;;;;;;;;;;;;;;;;;;2123938;28;19930;-48
2022/03/12 03:07:54;;;;;;;;;;;;;;;;;;2124049;28;20215;-48
2022/03/12 03:08:57;;;;;;;;;;;;;;;;;;2123903;28;19923;-47
2022/03/12 03:09:59;;;;;;;;;;;;;;;;;;2123979;27;20400;-47
2022/03/12 03:11:00;;;;;;;;;;;;;;;;;;2123927;27;20401;-48
2022/03/12 03:12:03;;;;;;;;;;;;;;;;;;2124143;28;20018;-49
2022/03/12 03:13:05;;;;;;;;;;;;;;;;;;2124181;28;19924;-48
2022/03/12 03:14:11;;;;;;;;;;;;;;;;;;2124108;27;19923;-48
2022/03/12 03:15:14;;;;;;;;;;;;;;;;;;2123988;28;19962;-47
2022/03/12 03:16:20;;;;;;;;;;;;;;;;;;2123772;28;19928;-48
2022/03/12 03:17:22;;;;;;;;;;;;;;;;;;2123916;28;19923;-47
2022/03/12 03:18:24;;;;;;;;;;;;;;;;;;2123862;28;20338;-50
2022/03/12 03:19:26;;;;;;;;;;;;;;;;;;2123989;27;20399;-50
2022/03/12 03:20:28;;;;;;;;;;;;;;;;;;2123862;27;20337;-48
2022/03/12 03:21:29;;;;;;;;;;;;;;;;;;2123797;27;19923;-47
2022/03/12 03:22:30;;;;;;;;;;;;;;;;;;2123913;27;19927;-48
2022/03/12 03:23:31;;;;;;;;;;;;;;;;;;2124117;27;19927;-43
2022/03/12 03:24:32;;;;;;;;;;;;;;;;;;2123957;27;19923;-47
2022/03/12 03:25:33;;;;;;;;;;;;;;;;;;2123947;27;20076;-47
2022/03/12 03:26:34;;;;;;;;;;;;;;;;;;2123977;27;19935;-45
2022/03/12 03:27:35;;;;;;;;;;;;;;;;;;2123747;27;19935;-43
2022/03/12 03:28:36;;;;;;;;;;;;;;;;;;2123838;27;19927;-43
2022/03/12 03:29:37;;;;;;;;;;;;;;;;;;2124012;27;20251;-43
2022/03/12 03:30:38;;;;;;;;;;;;;;;;;;2124098;27;19923;-43
2022/03/12 03:31:39;;;;;;;;;;;;;;;;;;2127708;27;19923;-44
2022/03/12 03:32:40;;;;;;;;;;;;;;;;;;2132370;27;19923;-43
2022/03/12 03:33:41;;;;;;;;;;;;;;;;;;2132399;27;19930;-43
2022/03/12 03:34:42;;;;;;;;;;;;;;;;;;2132493;27;19923;-43
2022/03/12 03:35:44;;;;;;;;;;;;;;;;;;2132352;27;19923;-43
2022/03/12 03:36:45;;;;;;;;;;;;;;;;;;2132274;27;19927;-44
2022/03/12 03:37:46;;;;;;;;;;;;;;;;;;2132305;27;19923;-43
2022/03/12 03:38:47;;;;;;;;;;;;;;;;;;2132591;27;19923;-48
2022/03/12 03:39:48;;;;;;;;;;;;;;;;;;2132285;27;19930;-49
2022/03/12 03:40:49;;;;;;;;;;;;;;;;;;2132519;27;19930;-43
2022/03/12 03:41:50;;;;;;;;;;;;;;;;;;2132030;27;19923;-43
2022/03/12 03:42:51;;;;;;;;;;;;;;;;;;2132209;27;19930;-43
2022/03/12 03:43:52;;;;;;;;;;;;;;;;;;2132323;27;20164;-43
2022/03/12 03:44:57;;;;;;;;;;;;;;;;;;2132540;27;20372;-48
2022/03/12 03:45:58;;;;;;;;;;;;;;;;;;2132317;27;19970;-48
2022/03/12 03:47:03;;;;;;;;;;;;;;;;;;2132223;27;19953;-50
2022/03/12 03:48:04;;;;;;;;;;;;;;;;;;2129323;27;19931;-48
2022/03/12 03:49:05;;;;;;;;;;;;;;;;;;2123702;27;19928;-50
2022/03/12 03:50:08;;;;;;;;;;;;;;;;;;2123643;28;19923;-48
2022/03/12 03:51:09;;;;;;;;;;;;;;;;;;2123603;27;19931;-43
2022/03/12 03:52:10;;;;;;;;;;;;;;;;;;2123656;28;20388;-43
2022/03/12 03:53:11;;;;;;;;;;;;;;;;;;2123643;27;20088;-43
2022/03/12 03:54:15;;;;;;;;;;;;;;;;;;2123562;28;19923;-43
2022/03/12 03:55:16;;;;;;;;;;;;;;;;;;2123536;28;19937;-43
2022/03/12 03:56:17;;;;;;;;;;;;;;;;;;2123702;28;20367;-43
2022/03/12 03:57:19;;;;;;;;;;;;;;;;;;2123830;28;19980;-44
2022/03/12 03:58:20;;;;;;;;;;;;;;;;;;2123528;28;19924;-43
2022/03/12 03:59:21;;;;;;;;;;;;;;;;;;2123502;27;19976;-43
2022/03/12 04:00:22;;;;;;;;;;;;;;;;;;2123597;28;19923;-43
2022/03/12 04:01:23;;;;;;;;;;;;;;;;;;2123143;27;19930;-44
2022/03/12 04:02:24;;;;;;;;;;;;;;;;;;2123579;27;19931;-44
2022/03/12 04:03:26;;;;;;;;;;;;;;;;;;2123981;27;20052;-48
2022/03/12 04:04:29;;;;;;;;;;;;;;;;;;2123591;27;19923;-48
2022/03/12 04:05:30;;;;;;;;;;;;;;;;;;2123530;28;19927;-49
2022/03/12 04:06:31;;;;;;;;;;;;;;;;;;2123502;28;19945;-51
2022/03/12 04:07:32;;;;;;;;;;;;;;;;;;2123688;28;19924;-43
2022/03/12 04:08:33;;;;;;;;;;;;;;;;;;2123600;28;19930;-43
2022/03/12 04:09:34;;;;;;;;;;;;;;;;;;2123532;28;19943;-50
2022/03/12 04:10:36;;;;;;;;;;;;;;;;;;2123745;27;19927;-50
2022/03/12 04:11:38;;;;;;;;;;;;;;;;;;2123423;28;19923;-51
2022/03/12 04:12:39;;;;;;;;;;;;;;;;;;2123594;28;19923;-48
2022/03/12 04:13:40;;;;;;;;;;;;;;;;;;2123458;27;19923;-49
2022/03/12 04:14:41;;;;;;;;;;;;;;;;;;2123780;27;19923;-43
2022/03/12 04:15:42;;;;;;;;;;;;;;;;;;2123531;28;20357;-43
2022/03/12 04:16:43;;;;;;;;;;;;;;;;;;2123426;27;19927;-43
2022/03/12 04:17:45;;;;;;;;;;;;;;;;;;2124049;27;19963;-48
2022/03/12 04:18:46;;;;;;;;;;;;;;;;;;2123371;27;20384;-48
2022/03/12 04:19:47;;;;;;;;;;;;;;;;;;2123606;28;20291;-48
2022/03/12 04:20:51;;;;;;;;;;;;;;;;;;2123440;28;19923;-48
2022/03/12 04:21:57;;;;;;;;;;;;;;;;;;2123401;28;19923;-48
2022/03/12 04:22:58;;;;;;;;;;;;;;;;;;2123643;28;19930;-43
2022/03/12 04:23:59;;;;;;;;;;;;;;;;;;2123782;28;19935;-43
2022/03/12 04:25:00;;;;;;;;;;;;;;;;;;2123412;27;20279;-43
2022/03/12 04:26:01;;;;;;;;;;;;;;;;;;2123290;28;19923;-43
2022/03/12 04:27:02;;;;;;;;;;;;;;;;;;2123365;28;19930;-43
2022/03/12 04:28:03;;;;;;;;;;;;;;;;;;2123440;27;19927;-43
2022/03/12 04:29:08;;;;;;;;;;;;;;;;;;2123238;28;19924;-43
2022/03/12 04:30:09;;;;;;;;;;;;;;;;;;2123544;28;20372;-43
2022/03/12 04:31:11;;;;;;;;;;;;;;;;;;2123249;27;19923;-43
2022/03/12 04:32:12;;;;;;;;;;;;;;;;;;2123537;28;19963;-45
2022/03/12 04:33:14;;;;;;;;;;;;;;;;;;2123502;28;19931;-43
2022/03/12 04:34:15;;;;;;;;;;;;;;;;;;2123470;27;19927;-42
2022/03/12 04:35:16;;;;;;;;;;;;;;;;;;2123946;27;19931;-43
2022/03/12 04:36:17;;;;;;;;;;;;;;;;;;2123413;28;19924;-48
2022/03/12 04:37:19;;;;;;;;;;;;;;;;;;2123560;28;19980;-44
2022/03/12 04:38:20;;;;;;;;;;;;;;;;;;2123299;28;19923;-43
2022/03/12 04:39:21;;;;;;;;;;;;;;;;;;2123438;28;19924;-43
2022/03/12 04:40:23;;;;;;;;;;;;;;;;;;2123339;27;19999;-43
2022/03/12 04:41:25;;;;;;;;;;;;;;;;;;2123312;28;19972;-43
2022/03/12 04:42:26;;;;;;;;;;;;;;;;;;2123728;28;19923;-43
2022/03/12 04:43:28;;;;;;;;;;;;;;;;;;2123315;28;19923;-43
2022/03/12 04:44:29;;;;;;;;;;;;;;;;;;2123703;27;19924;-47
2022/03/12 04:45:30;;;;;;;;;;;;;;;;;;2123303;28;19934;-48
2022/03/12 04:46:32;;;;;;;;;;;;;;;;;;2123845;28;19924;-50
2022/03/12 04:47:33;;;;;;;;;;;;;;;;;;2123339;28;20475;-49
2022/03/12 04:48:34;;;;;;;;;;;;;;;;;;2123253;27;19930;-47
2022/03/12 04:49:35;;;;;;;;;;;;;;;;;;2123297;28;19931;-50
2022/03/12 04:50:36;;;;;;;;;;;;;;;;;;2123413;27;19923;-48
2022/03/12 04:51:37;;;;;;;;;;;;;;;;;;2130703;27;19930;-48
2022/03/12 04:52:38;;;;;;;;;;;;;;;;;;2131966;27;19923;-48
2022/03/12 04:53:39;;;;;;;;;;;;;;;;;;2131929;27;20176;-47
2022/03/12 04:54:41;;;;;;;;;;;;;;;;;;2132193;27;19923;-48
2022/03/12 04:55:42;;;;;;;;;;;;;;;;;;2131759;27;19952;-49
2022/03/12 04:56:44;;;;;;;;;;;;;;;;;;2131723;27;19923;-47
2022/03/12 04:57:45;;;;;;;;;;;;;;;;;;2128040;27;19924;-49
2022/03/12 04:58:46;;;;;;;;;;;;;;;;;;2123163;28;20392;-48
2022/03/12 04:59:47;;;;;;;;;;;;;;;;;;2123210;28;19923;-48
2022/03/12 05:00:48;;;;;;;;;;;;;;;;;;2127848;27;19923;-47
2022/03/12 05:01:49;;;;;;;;;;;;;;;;;;2131516;27;19933;-48
2022/03/12 05:02:51;;;;;;;;;;;;;;;;;;2131925;27;20015;-49
2022/03/12 05:03:52;;;;;;;;;;;;;;;;;;2132098;27;19923;-43
2022/03/12 05:04:53;;;;;;;;;;;;;;;;;;2126735;27;20429;-47
2022/03/12 05:05:54;;;;;;;;;;;;;;;;;;2130702;27;19923;-49
2022/03/12 05:06:55;;;;;;;;;;;;;;;;;;2132138;27;19974;-43
2022/03/12 05:07:58;;;;;;;;;;;;;;;;;;2131696;27;20364;-44
2022/03/12 05:09:02;;;;;;;;;;;;;;;;;;2131880;27;19930;-44
2022/03/12 05:10:07;;;;;;;;;;;;;;;;;;2131700;27;20288;-44
2022/03/12 05:11:08;;;;;;;;;;;;;;;;;;2131618;27;19931;-45
2022/03/12 05:12:09;;;;;;;;;;;;;;;;;;2131657;27;19923;-43
2022/03/12 05:13:12;;;;;;;;;;;;;;;;;;2131872;27;20022;-43
2022/03/12 05:14:15;;;;;;;;;;;;;;;;;;2132004;27;19923;-49
2022/03/12 05:15:16;;;;;;;;;;;;;;;;;;2128064;27;19939;-44
2022/03/12 05:16:17;;;;;;;;;;;;;;;;;;2125105;27;19923;-44
2022/03/12 05:17:26;;;;;;;;;;;;;;;;;;2127808;27;20047;-44
2022/03/12 05:18:27;;;;;;;;;;;;;;;;;;2132003;27;19923;-44
2022/03/12 05:19:28;;;;;;;;;;;;;;;;;;2132335;27;20322;-43
2022/03/12 05:20:30;;;;;;;;;;;;;;;;;;2124770;27;19924;-49
2022/03/12 05:21:30;;;;;;;;;;;;;;;;;;2123884;27;19980;-48
2022/03/12 05:22:32;;;;;;;;;;;;;;;;;;2123221;27;19927;-44
2022/03/12 05:23:33;;;;;;;;;;;;;;;;;;2122898;27;19924;-43
2022/03/12 05:24:34;;;;;;;;;;;;;;;;;;2126762;27;19923;-44
2022/03/12 05:25:35;;;;;;;;;;;;;;;;;;2123138;27;20102;-43
2022/03/12 05:26:36;;;;;;;;;;;;;;;;;;2131446;27;19927;-43
2022/03/12 05:27:37;;;;;;;;;;;;;;;;;;2131635;27;19946;-43
2022/03/12 05:28:41;;;;;;;;;;;;;;;;;;2131623;27;20394;-49
2022/03/12 05:29:45;;;;;;;;;;;;;;;;;;2130615;27;20289;-43
2022/03/12 05:30:46;;;;;;;;;;;;;;;;;;2123431;28;19969;-44
2022/03/12 05:31:48;;;;;;;;;;;;;;;;;;2128104;27;20393;-43
2022/03/12 05:32:49;;;;;;;;;;;;;;;;;;2130744;27;19923;-43
2022/03/12 05:33:50;;;;;;;;;;;;;;;;;;2125555;27;20065;-43
2022/03/12 05:34:51;;;;;;;;;;;;;;;;;;2123044;28;19931;-44
2022/03/12 05:35:54;;;;;;;;;;;;;;;;;;2123169;28;20361;-43
2022/03/12 05:36:55;;;;;;;;;;;;;;;;;;2128497;27;20446;-49
2022/03/12 05:37:56;;;;;;;;;;;;;;;;;;2125721;27;19931;-48
2022/03/12 05:38:59;;;;;;;;;;;;;;;;;;2127367;27;19923;-46
2022/03/12 05:40:00;;;;;;;;;;;;;;;;;;2124921;27;19945;-47
2022/03/12 05:41:02;;;;;;;;;;;;;;;;;;2123563;27;19924;-47
2022/03/12 05:42:05;;;;;;;;;;;;;;;;;;2130238;27;19931;-48
2022/03/12 05:43:11;;;;;;;;;;;;;;;;;;2123791;27;20022;-50
2022/03/12 05:44:14;;;;;;;;;;;;;;;;;;2129030;27;19935;-48
2022/03/12 05:45:16;;;;;;;;;;;;;;;;;;2129879;27;20277;-49
2022/03/12 05:46:17;;;;;;;;;;;;;;;;;;2127687;27;19927;-47
2022/03/12 05:47:20;;;;;;;;;;;;;;;;;;2123376;27;19927;-46
2022/03/12 05:48:21;;;;;;;;;;;;;;;;;;2128272;27;19930;-48
2022/03/12 05:49:22;;;;;;;;;;;;;;;;;;2130610;27;20272;-49
2022/03/12 05:50:24;;;;;;;;;;;;;;;;;;2127730;27;19923;-48
2022/03/12 05:51:25;;;;;;;;;;;;;;;;;;2128090;27;20303;-44
2022/03/12 05:52:27;;;;;;;;;;;;;;;;;;2122844;28;19928;-43
2022/03/12 05:53:30;;;;;;;;;;;;;;;;;;2122774;28;19935;-43
2022/03/12 05:54:31;;;;;;;;;;;;;;;;;;2123128;27;19928;-47
2022/03/12 05:55:39;;;;;;;;;;;;;;;;;;2123985;27;20379;-47
2022/03/12 05:56:40;;;;;;;;;;;;;;;;;;2122693;27;19924;-49
2022/03/12 05:57:42;;;;;;;;;;;;;;;;;;2125930;27;19947;-43
2022/03/12 05:58:43;;;;;;;;;;;;;;;;;;2116839;27;19931;-43
2022/03/12 05:59:45;;;;;;;;;;;;;;;;;;2121709;27;19927;-43
2022/03/12 06:00:46;;;;;;;;;;;;;;;;;;2122773;27;19924;-43
2022/03/12 06:01:50;;;;;;;;;;;;;;;;;;2123750;27;19938;-48
2022/03/12 06:02:52;;;;;;;;;;;;;;;;;;2130110;27;19923;-49
2022/03/12 06:03:54;;;;;;;;;;;;;;;;;;2131120;27;20375;-48
2022/03/12 06:04:58;;;;;;;;;;;;;;;;;;2130327;27;20383;-50
2022/03/12 06:06:01;;;;;;;;;;;;;;;;;;2125454;27;20514;-47
2022/03/12 06:07:02;;;;;;;;;;;;;;;;;;2127071;27;19923;-51
2022/03/12 06:08:04;;;;;;;;;;;;;;;;;;2130232;27;19938;-43
2022/03/12 06:09:07;;;;;;;;;;;;;;;;;;2127573;27;19934;-42
2022/03/12 06:10:08;;;;;;;;;;;;;;;;;;2125880;27;19946;-48
2022/03/12 06:11:12;;;;;;;;;;;;;;;;;;2125561;27;19976;-43
2022/03/12 06:12:17;;;;;;;;;;;;;;;;;;2129741;27;19923;-47
2022/03/12 06:13:18;;;;;;;;;;;;;;;;;;2124951;27;19931;-48
2022/03/12 06:14:19;;;;;;;;;;;;;;;;;;2122955;27;19934;-47
2022/03/12 06:15:20;;;;;;;;;;;;;;;;;;2128978;27;19923;-49
2022/03/12 06:16:21;;;;;;;;;;;;;;;;;;2131807;27;20377;-43
2022/03/12 06:17:24;;;;;;;;;;;;;;;;;;2129751;27;20028;-43
2022/03/12 06:18:26;;;;;;;;;;;;;;;;;;2130733;27;19943;-44
2022/03/12 06:19:29;;;;;;;;;;;;;;;;;;2130918;27;20433;-48
2022/03/12 06:20:30;;;;;;;;;;;;;;;;;;2131380;27;20492;-52
2022/03/12 06:21:31;;;;;;;;;;;;;;;;;;2131295;27;20292;-47
2022/03/12 06:22:32;;;;;;;;;;;;;;;;;;2131209;27;19930;-43
2022/03/12 06:23:33;;;;;;;;;;;;;;;;;;2131028;27;19947;-43
2022/03/12 06:24:34;;;;;;;;;;;;;;;;;;2131429;27;19923;-43
2022/03/12 06:25:35;;;;;;;;;;;;;;;;;;2131564;27;19927;-43
2022/03/12 06:26:39;;;;;;;;;;;;;;;;;;2131247;27;19923;-43
2022/03/12 06:27:42;;;;;;;;;;;;;;;;;;2131262;27;19923;-43
2022/03/12 06:28:43;;;;;;;;;;;;;;;;;;2131446;27;20387;-43
2022/03/12 06:29:45;;;;;;;;;;;;;;;;;;2131206;27;19930;-43
2022/03/12 06:30:47;;;;;;;;;;;;;;;;;;2131173;27;19927;-44
2022/03/12 06:31:48;;;;;;;;;;;;;;;;;;2126060;27;19976;-44
2022/03/12 06:32:49;;;;;;;;;;;;;;;;;;2122749;27;19923;-44
2022/03/12 06:33:50;;;;;;;;;;;;;;;;;;2122667;27;19930;-44
2022/03/12 06:34:51;;;;;;;;;;;;;;;;;;2122870;28;19927;-45
2022/03/12 06:35:53;;;;;;;;;;;;;;;;;;2122959;27;19923;-48
2022/03/12 06:36:54;;;;;;;;;;;;;;;;;;2122593;27;19923;-49
2022/03/12 06:37:56;;;;;;;;;;;;;;;;;;2124145;27;19934;-49
2022/03/12 06:38:57;;;;;;;;;;;;;;;;;;2124275;28;19930;-48
2022/03/12 06:40:00;;;;;;;;;;;;;;;;;;2124112;28;19924;-48
2022/03/12 06:41:01;;;;;;;;;;;;;;;;;;2124210;27;19927;-51
2022/03/12 06:42:02;;;;;;;;;;;;;;;;;;2124072;28;19992;-52
2022/03/12 06:43:05;;;;;;;;;;;;;;;;;;2124229;28;20001;-45
2022/03/12 06:44:06;;;;;;;;;;;;;;;;;;2124204;28;19952;-44
2022/03/12 06:45:08;;;;;;;;;;;;;;;;;;2124573;28;19924;-50
2022/03/12 06:46:14;;;;;;;;;;;;;;;;;;2124063;28;19923;-49
2022/03/12 06:47:19;;;;;;;;;;;;;;;;;;2123948;28;20010;-49
2022/03/12 06:48:22;;;;;;;;;;;;;;;;;;2124916;27;19942;-52
2022/03/12 06:49:23;;;;;;;;;;;;;;;;;;2129293;27;19975;-49
2022/03/12 06:50:26;;;;;;;;;;;;;;;;;;2125275;27;20381;-45
2022/03/12 06:51:27;;;;;;;;;;;;;;;;;;2123799;27;19956;-52
2022/03/12 06:52:28;;;;;;;;;;;;;;;;;;2125851;27;19945;-50
2022/03/12 06:53:30;;;;;;;;;;;;;;;;;;2125140;27;19935;-50
2022/03/12 06:54:30;;;;;;;;;;;;;;;;;;2125907;27;19950;-49
2022/03/12 06:55:33;;;;;;;;;;;;;;;;;;2127551;27;19931;-49
2022/03/12 06:56:34;;;;;;;;;;;;;;;;;;2128103;27;19931;-49
2022/03/12 06:57:35;;;;;;;;;;;;;;;;;;2124616;27;19931;-50
2022/03/12 06:58:37;;;;;;;;;;;;;;;;;;2128673;27;19924;-50
2022/03/12 06:59:39;;;;;;;;;;;;;;;;;;2130794;27;20287;-49
2022/03/12 07:00:40;;;;;;;;;;;;;;;;;;2130358;27;20345;-48
2022/03/12 07:01:41;;;;;;;;;;;;;;;;;;2125751;27;19924;-44